AIRPORT ID: KVMR

DATE: 2024-05-27 ZULU TIME: 10.55 LOCAL TIME: 5.55


METAR KVMR 271055Z AUTO 00000KT 10SM 14/10 A2985

ALTIMETER: A2985 Q1011

DENSITY ALT: 1300 Ft

WIND DIRECT: 280

WIND SPEED: 3 Gust

WIND CONDITIONS:

VISIBILTY: 10SM 9999M

TEMPERATURE: 57 F 14 C

DEW POINT: 50 F 10 C

HUMID: 78%

LCL: 1,000-3,000 feet

RADIO CHECK: 0

ADVISARIES: 0

GREETINGS: 0

CONVERSATIONS: 0